Time;durP1;ratioP1;P1;durP2;ratioP2;P2;SDS_P1;SDS_P2;PMS_P1;PMS_P2;Temp;Humidity;BMP_temperature;BMP_pressure;BME280_temperature;BME280_humidity;BME280_pressure;Samples;Min_cycle;Max_cycle;Signal;HPM_P1;HPM_P2
2022/09/02 00:01:38;;;;;;;;;;;18.80;75.50;;;-147.18;100.00;67318.16;4989139;28;20406;-82
2022/09/02 00:04:07;;;;;;;;;;;18.80;75.70;;;-147.18;100.00;67318.16;4989471;28;19925;-82
2022/09/02 00:06:35;;;;;;;;;;;18.80;75.90;;;-147.18;100.00;67318.16;4989701;28;20008;-82
2022/09/02 00:09:03;;;;;;;;;;;18.80;75.80;;;-147.18;100.00;67318.16;4978373;28;19937;-82
2022/09/02 00:11:32;;;;;;;;;;;18.70;76.20;;;-147.18;100.00;67318.16;4969513;28;20024;-81
2022/09/02 00:14:02;;;;;;;;;;;18.70;76.10;;;-147.18;100.00;67318.16;4980754;28;19929;-82
2022/09/02 00:16:30;;;;;;;;;;;18.70;75.90;;;-147.18;100.00;67318.16;4976715;28;19941;-82
2022/09/02 00:18:57;;;;;;;;;;;18.70;75.80;;;-147.18;100.00;67318.16;4985658;28;19932;-82
2022/09/02 00:21:25;;;;;;;;;;;18.70;75.60;;;-147.18;100.00;67318.16;4983424;28;20036;-82
2022/09/02 00:23:52;;;;;;;;;;;18.70;75.60;;;-147.18;100.00;67318.16;4971004;28;19926;-82
2022/09/02 00:26:20;;;;;;;;;;;18.60;75.40;;;-147.18;100.00;67318.16;4974145;28;19953;-82
2022/09/02 00:28:49;;;;;;;;;;;18.60;75.30;;;-147.18;100.00;67318.16;4990566;28;20678;-82
2022/09/02 00:31:20;;;;;;;;;;;18.60;74.90;;;-147.18;100.00;67318.16;4986024;28;20289;-82
2022/09/02 00:33:49;;;;;;;;;;;18.60;74.80;;;-147.18;100.00;67318.16;4988740;28;19925;-82
2022/09/02 00:36:17;;;;;;;;;;;18.60;75.00;;;-147.18;100.00;67318.16;4987453;28;19937;-82
2022/09/02 00:38:48;;;;;;;;;;;18.60;74.90;;;-147.18;100.00;67318.16;4988969;28;19922;-82
2022/09/02 00:41:15;;;;;;;;;;;18.60;75.00;;;-147.18;100.00;67318.16;4988293;28;19925;-82
2022/09/02 00:43:50;;;;;;;;;;;18.60;75.00;;;-147.18;100.00;67318.16;4972144;28;19926;-82
2022/09/02 00:46:24;;;;;;;;;;;18.60;75.20;;;-147.18;100.00;67318.16;4975081;28;19930;-82
2022/09/02 00:48:56;;;;;;;;;;;18.60;75.80;;;-147.18;100.00;67318.16;4992557;28;19921;-82
2022/09/02 00:51:24;;;;;;;;;;;18.60;75.70;;;-147.18;100.00;67318.16;4984088;28;19932;-81
2022/09/02 00:53:51;;;;;;;;;;;18.50;75.90;;;-147.18;100.00;67318.16;4993555;28;19921;-81
2022/09/02 00:56:21;;;;;;;;;;;18.50;76.30;;;-147.18;100.00;67318.16;4992258;28;20024;-81
2022/09/02 00:58:50;;;;;;;;;;;18.50;76.30;;;-147.18;100.00;67318.16;4971492;28;19957;-81
2022/09/02 01:01:17;;;;;;;;;;;18.50;76.40;;;-147.18;100.00;67318.16;4980943;28;19929;-82
2022/09/02 01:03:45;;;;;;;;;;;18.50;76.30;;;-147.18;100.00;67318.16;4993495;28;20020;-81
2022/09/02 01:06:14;;;;;;;;;;;18.50;76.00;;;-147.18;100.00;67318.16;4985295;28;20305;-81
2022/09/02 01:08:44;;;;;;;;;;;18.50;76.00;;;-147.18;100.00;67318.16;4991012;28;19924;-81
2022/09/02 01:11:11;;;;;;;;;;;18.40;76.00;;;-147.18;100.00;67318.16;4992480;28;19922;-81
2022/09/02 01:13:41;;;;;;;;;;;18.40;76.00;;;-147.18;100.00;67318.16;4993520;28;19937;-81
2022/09/02 01:16:13;;;;;;;;;;;18.40;75.80;;;-147.18;100.00;67318.16;4979468;28;19926;-82
2022/09/02 01:18:40;;;;;;;;;;;18.40;75.80;;;-147.18;100.00;67318.16;4986988;28;19921;-81
2022/09/02 01:21:09;;;;;;;;;;;18.40;75.80;;;-147.18;100.00;67318.16;4980333;28;19953;-81
2022/09/02 01:23:38;;;;;;;;;;;18.40;75.70;;;-147.18;100.00;67318.16;4978474;28;20379;-81
2022/09/02 01:26:06;;;;;;;;;;;18.40;75.70;;;-147.18;100.00;67318.16;4989624;28;19930;-82
2022/09/02 01:28:33;;;;;;;;;;;18.40;76.00;;;-147.18;100.00;67318.16;4991060;28;19925;-81
2022/09/02 01:31:00;;;;;;;;;;;18.30;75.90;;;-147.18;100.00;67318.16;4991828;28;19921;-82
2022/09/02 01:33:28;;;;;;;;;;;18.40;76.10;;;-147.18;100.00;67318.16;4990272;28;19926;-82
2022/09/02 01:35:55;;;;;;;;;;;18.40;75.80;;;-147.18;100.00;67318.16;4973299;28;19926;-81
2022/09/02 01:38:23;;;;;;;;;;;18.40;75.70;;;-147.18;100.00;67318.16;4972323;28;19929;-82
2022/09/02 01:40:52;;;;;;;;;;;18.40;75.70;;;-147.18;100.00;67318.16;4990694;28;20385;-82
2022/09/02 01:43:22;;;;;;;;;;;18.40;75.60;;;-147.18;100.00;67318.16;4990471;28;19968;-82
2022/09/02 01:45:51;;;;;;;;;;;18.30;75.60;;;-147.18;100.00;67318.16;4990833;28;19958;-82
2022/09/02 01:48:18;;;;;;;;;;;18.30;75.90;;;-147.18;100.00;67318.16;4983772;28;19932;-81
2022/09/02 01:50:49;;;;;;;;;;;18.30;75.80;;;-147.18;100.00;67318.16;4973026;28;19922;-81
2022/09/02 01:53:16;;;;;;;;;;;18.30;76.20;;;-147.18;100.00;67318.16;4976883;28;19965;-81
2022/09/02 01:55:43;;;;;;;;;;;18.40;76.10;;;-147.18;100.00;67318.16;4971136;28;20279;-82
2022/09/02 01:58:12;;;;;;;;;;;18.30;76.20;;;-147.18;100.00;67318.16;4976147;28;19930;-81
2022/09/02 02:00:40;;;;;;;;;;;18.30;76.10;;;-147.18;100.00;67318.16;4991098;28;19926;-81
2022/09/02 02:03:07;;;;;;;;;;;18.20;76.20;;;-147.18;100.00;67318.16;4990602;28;20081;-82
2022/09/02 02:05:34;;;;;;;;;;;18.20;76.20;;;-147.18;100.00;67318.16;4990541;28;19925;-81
2022/09/02 02:08:03;;;;;;;;;;;18.20;76.30;;;-147.18;100.00;67318.16;4990137;28;19925;-82
2022/09/02 02:10:31;;;;;;;;;;;18.20;76.40;;;-147.18;100.00;67318.16;4972688;28;19922;-81
2022/09/02 02:12:59;;;;;;;;;;;18.20;76.40;;;-147.18;100.00;67318.16;4972987;28;19969;-82
2022/09/02 02:15:29;;;;;;;;;;;18.10;76.50;;;-147.18;100.00;67318.16;4990097;28;19932;-82
2022/09/02 02:17:56;;;;;;;;;;;18.10;76.50;;;-147.18;100.00;67318.16;4989835;28;19922;-82
2022/09/02 02:20:23;;;;;;;;;;;18.10;76.50;;;-147.18;100.00;67318.16;4992092;28;19926;-82
2022/09/02 02:22:50;;;;;;;;;;;18.10;76.50;;;-147.18;100.00;67318.16;4987310;28;19932;-81
2022/09/02 02:25:17;;;;;;;;;;;18.10;76.80;;;-147.18;100.00;67318.16;4972127;28;19930;-82
2022/09/02 02:27:44;;;;;;;;;;;18.00;76.60;;;-147.18;100.00;67318.16;4972317;28;19949;-81
2022/09/02 02:30:14;;;;;;;;;;;18.00;76.80;;;-147.18;100.00;67318.16;4971225;28;19936;-82
2022/09/02 02:32:45;;;;;;;;;;;18.00;77.10;;;-147.18;100.00;67318.16;4971965;28;19922;-82
2022/09/02 02:35:15;;;;;;;;;;;18.00;77.10;;;-147.18;100.00;67318.16;4989923;28;19929;-82
2022/09/02 02:37:42;;;;;;;;;;;18.00;77.20;;;-147.18;100.00;67318.16;4989793;28;19922;-82
2022/09/02 02:40:10;;;;;;;;;;;18.00;77.30;;;-147.18;100.00;67318.16;4991710;28;19968;-82
2022/09/02 02:42:38;;;;;;;;;;;18.00;77.40;;;-147.18;100.00;67318.16;4989824;28;20390;-82
2022/09/02 02:45:08;;;;;;;;;;;17.90;77.40;;;-147.18;100.00;67318.16;4970777;28;19925;-81
2022/09/02 02:47:38;;;;;;;;;;;17.90;77.80;;;-147.18;100.00;67318.16;4970968;28;19961;-81
2022/09/02 02:50:09;;;;;;;;;;;17.80;77.60;;;-147.18;100.00;67318.16;4973691;28;19933;-81
2022/09/02 02:52:36;;;;;;;;;;;17.80;77.80;;;-147.18;100.00;67318.16;4983874;28;19921;-82
2022/09/02 02:55:05;;;;;;;;;;;17.80;77.80;;;-147.18;100.00;67318.16;4988091;28;19929;-82
2022/09/02 02:57:32;;;;;;;;;;;17.80;77.80;;;-147.18;100.00;67318.16;4987115;28;20033;-82
2022/09/02 03:00:04;;;;;;;;;;;17.90;78.10;;;-147.18;100.00;67318.16;4976495;28;20688;-82
2022/09/02 03:02:32;;;;;;;;;;;17.80;78.10;;;-147.18;100.00;67318.16;4988943;28;20298;-82
2022/09/02 03:05:00;;;;;;;;;;;17.80;78.30;;;-147.18;100.00;67318.16;4981006;28;19932;-82
2022/09/02 03:07:29;;;;;;;;;;;17.80;78.20;;;-147.18;100.00;67318.16;4977633;28;20308;-82
2022/09/02 03:09:56;;;;;;;;;;;17.80;78.30;;;-147.18;100.00;67318.16;4971719;28;19926;-81
2022/09/02 03:12:23;;;;;;;;;;;17.80;78.20;;;-147.18;100.00;67318.16;4987781;28;20386;-81
2022/09/02 03:14:51;;;;;;;;;;;17.80;78.30;;;-147.18;100.00;67318.16;4987654;28;19953;-82
2022/09/02 03:17:19;;;;;;;;;;;17.70;78.50;;;-147.18;100.00;67318.16;4987638;28;19971;-82
2022/09/02 03:19:47;;;;;;;;;;;17.70;78.50;;;-147.18;100.00;67318.16;4986425;28;19949;-81
2022/09/02 03:22:14;;;;;;;;;;;17.70;78.70;;;-147.18;100.00;67318.16;4986771;28;19925;-82
2022/09/02 03:24:43;;;;;;;;;;;17.70;78.80;;;-147.18;100.00;67318.16;5000462;23;19929;-82
2022/09/02 03:27:11;;;;;;;;;;;17.70;78.80;;;-147.18;100.00;67318.16;4987010;28;19932;-82
2022/09/02 03:29:39;;;;;;;;;;;17.70;79.00;;;-147.18;100.00;67318.16;4982690;28;19922;-82
2022/09/02 03:32:07;;;;;;;;;;;17.60;78.90;;;-147.18;100.00;67318.16;4987985;28;19961;-82
2022/09/02 03:34:34;;;;;;;;;;;17.60;79.10;;;-147.18;100.00;67318.16;4985342;28;20009;-82
2022/09/02 03:37:01;;;;;;;;;;;17.60;78.90;;;-147.18;100.00;67318.16;5003397;28;20020;-82
2022/09/02 03:39:29;;;;;;;;;;;17.60;78.90;;;-147.18;100.00;67318.16;4988589;28;19929;-82
2022/09/02 03:41:58;;;;;;;;;;;17.60;79.00;;;-147.18;100.00;67318.16;4983247;28;19921;-82
2022/09/02 03:44:25;;;;;;;;;;;17.60;78.80;;;-147.18;100.00;67318.16;4978758;28;19925;-82
2022/09/02 03:46:53;;;;;;;;;;;17.60;78.50;;;-147.18;100.00;67318.16;4986383;28;20279;-82
2022/09/02 03:49:20;;;;;;;;;;;17.60;78.40;;;-147.18;100.00;67318.16;4978970;28;19952;-82
2022/09/02 03:51:48;;;;;;;;;;;17.60;78.80;;;-147.18;100.00;67318.16;4983456;28;20020;-82
2022/09/02 03:54:15;;;;;;;;;;;17.60;78.60;;;-147.18;100.00;67318.16;4988631;28;20470;-82
2022/09/02 03:56:42;;;;;;;;;;;17.60;79.00;;;-147.18;100.00;67318.16;4972062;28;19922;-82
2022/09/02 03:59:11;;;;;;;;;;;17.60;79.10;;;-147.18;100.00;67318.16;4970109;28;19926;-82
2022/09/02 04:01:39;;;;;;;;;;;17.60;79.30;;;-147.18;100.00;67318.16;4978016;28;19989;-82
2022/09/02 04:04:07;;;;;;;;;;;17.60;79.30;;;-147.18;100.00;67318.16;4987428;28;19929;-82
2022/09/02 04:06:36;;;;;;;;;;;17.60;79.30;;;-147.18;100.00;67318.16;4990266;28;19932;-83
2022/09/02 04:09:05;;;;;;;;;;;17.60;79.00;;;-147.18;100.00;67318.16;4987191;28;19929;-83
2022/09/02 04:11:33;;;;;;;;;;;17.60;79.10;;;-147.18;100.00;67318.16;4980246;28;19922;-82
2022/09/02 04:14:01;;;;;;;;;;;17.60;78.90;;;-147.18;100.00;67318.16;4972655;28;19932;-82
2022/09/02 04:21:00;;;;;;;;;;;17.50;78.80;;;-147.18;100.00;67318.16;4978309;28;19977;-82
2022/09/02 04:23:46;;;;;;;;;;;17.50;78.60;;;-147.18;100.00;67318.16;4974547;28;19953;-83
2022/09/02 04:26:16;;;;;;;;;;;17.60;78.70;;;-147.18;100.00;67318.16;4991643;28;20556;-83
2022/09/02 04:28:43;;;;;;;;;;;17.50;78.50;;;-147.18;100.00;67318.16;4993109;28;20004;-83
2022/09/02 04:31:12;;;;;;;;;;;17.60;78.50;;;-147.18;100.00;67318.16;4984756;28;19926;-82
2022/09/02 04:33:40;;;;;;;;;;;17.50;78.40;;;-147.18;100.00;67318.16;4992092;28;19925;-83
2022/09/02 04:36:13;;;;;;;;;;;17.60;78.60;;;-147.18;100.00;67318.16;5008620;28;19932;-80
2022/09/02 04:38:40;;;;;;;;;;;17.50;78.70;;;-147.18;100.00;67318.16;4998141;28;19926;-81
2022/09/02 04:41:12;;;;;;;;;;;17.50;78.70;;;-147.18;100.00;67318.16;4992167;28;20462;-80
2022/09/02 04:43:39;;;;;;;;;;;17.50;78.60;;;-147.18;100.00;67318.16;4983116;28;19922;-79
2022/09/02 04:46:09;;;;;;;;;;;17.60;78.60;;;-147.18;100.00;67318.16;4992173;28;19922;-79
2022/09/02 04:48:37;;;;;;;;;;;17.60;78.60;;;-147.18;100.00;67318.16;4991683;28;20704;-79
2022/09/02 04:51:05;;;;;;;;;;;17.60;78.50;;;-147.18;100.00;67318.16;4995555;28;19921;-79
2022/09/02 04:53:34;;;;;;;;;;;17.60;78.50;;;-147.18;100.00;67318.16;4990962;28;19929;-81
2022/09/02 04:56:04;;;;;;;;;;;17.60;78.40;;;-147.18;100.00;67318.16;4984610;28;20333;-79
2022/09/02 04:58:32;;;;;;;;;;;17.60;78.80;;;-147.18;100.00;67318.16;4997479;28;19926;-79
2022/09/02 05:01:05;;;;;;;;;;;17.60;78.80;;;-147.18;100.00;67318.16;4972692;28;19976;-79
2022/09/02 05:03:33;;;;;;;;;;;17.50;79.10;;;-147.18;100.00;67318.16;4995397;28;19922;-79
2022/09/02 05:06:01;;;;;;;;;;;17.50;79.00;;;-147.18;100.00;67318.16;4972104;28;19930;-79
2022/09/02 05:08:29;;;;;;;;;;;17.60;79.30;;;-147.18;100.00;67318.16;4988133;28;20437;-79
2022/09/02 05:10:56;;;;;;;;;;;17.50;79.30;;;-147.18;100.00;67318.16;4987128;28;19944;-80
2022/09/02 05:13:24;;;;;;;;;;;17.50;79.60;;;-147.18;100.00;67318.16;4987926;28;19928;-79
2022/09/02 05:15:53;;;;;;;;;;;17.50;79.60;;;-147.18;100.00;67318.16;4990948;28;20322;-80
2022/09/02 05:18:21;;;;;;;;;;;17.60;79.10;;;-147.18;100.00;67318.16;4980428;28;19933;-78
2022/09/02 05:20:48;;;;;;;;;;;17.60;79.50;;;-147.18;100.00;67318.16;4984543;28;19937;-79
2022/09/02 05:23:16;;;;;;;;;;;17.50;79.10;;;-147.18;100.00;67318.16;4990294;28;19933;-79
2022/09/02 05:25:44;;;;;;;;;;;17.60;79.90;;;-147.18;100.00;67318.16;4989388;28;19925;-79
2022/09/02 05:28:11;;;;;;;;;;;17.60;80.10;;;-147.18;100.00;67318.16;4983894;28;20453;-82
2022/09/02 05:30:39;;;;;;;;;;;17.50;80.10;;;-147.18;100.00;67318.16;4993294;28;19961;-82
2022/09/02 05:33:09;;;;;;;;;;;17.60;80.50;;;-147.18;100.00;67318.16;4998409;28;20025;-82
2022/09/02 05:35:40;;;;;;;;;;;17.60;80.70;;;-147.18;100.00;67318.16;4984313;28;19926;-81
2022/09/02 05:38:08;;;;;;;;;;;17.50;80.80;;;-147.18;100.00;67318.16;4974745;28;19947;-83
2022/09/02 05:40:37;;;;;;;;;;;17.50;81.00;;;-147.18;100.00;67318.16;4997157;28;19922;-82
2022/09/02 05:43:04;;;;;;;;;;;17.50;81.10;;;-147.18;100.00;67318.16;4982564;28;20496;-82
2022/09/02 05:45:33;;;;;;;;;;;17.50;81.00;;;-147.18;100.00;67318.16;4995573;28;19930;-83
2022/09/02 05:49:04;;;;;;;;;;;17.50;81.20;;;-147.18;100.00;67318.16;4991144;28;19922;-82
2022/09/02 05:50:49;;;;;;;;;;;17.50;81.50;;;-147.18;100.00;67318.16;4984284;28;20404;-82
2022/09/02 05:53:17;;;;;;;;;;;17.50;81.60;;;-147.18;100.00;67318.16;4986648;28;19926;-82
2022/09/02 05:55:45;;;;;;;;;;;17.50;81.20;;;-147.18;100.00;67318.16;4973149;28;19929;-83
2022/09/02 05:58:12;;;;;;;;;;;17.50;81.00;;;-147.18;100.00;67318.16;4984864;28;19929;-84
2022/09/02 06:00:39;;;;;;;;;;;17.60;81.40;;;-147.18;100.00;67318.16;4977824;28;19921;-83
2022/09/02 06:03:07;;;;;;;;;;;17.60;81.50;;;-147.18;100.00;67318.16;4980186;28;20709;-82
2022/09/02 06:05:37;;;;;;;;;;;17.70;81.80;;;-147.18;100.00;67318.16;4975666;28;19932;-83
2022/09/02 06:08:20;;;;;;;;;;;17.70;80.90;;;-147.18;100.00;67318.16;4986019;28;19922;-82
2022/09/02 06:10:47;;;;;;;;;;;17.70;80.60;;;-147.18;100.00;67318.16;4990717;28;20652;-83
2022/09/02 06:13:20;;;;;;;;;;;17.80;79.60;;;-147.18;100.00;67318.16;4994264;28;19956;-83
2022/09/02 06:15:48;;;;;;;;;;;17.90;79.10;;;-147.18;100.00;67318.16;4996630;28;19930;-83
2022/09/02 06:18:16;;;;;;;;;;;17.90;78.80;;;-147.18;100.00;67318.16;4978594;28;19942;-80
2022/09/02 06:20:47;;;;;;;;;;;18.00;78.50;;;-147.18;100.00;67318.16;4986297;28;19941;-85
2022/09/02 06:23:16;;;;;;;;;;;18.00;78.40;;;-147.18;100.00;67318.16;4997649;28;20199;-84
2022/09/02 06:25:47;;;;;;;;;;;18.10;78.60;;;-147.18;100.00;67318.16;4989687;28;19950;-85
2022/09/02 06:28:15;;;;;;;;;;;18.20;78.00;;;-147.18;100.00;67318.16;4981136;28;19976;-85
2022/09/02 06:30:47;;;;;;;;;;;18.20;78.00;;;-147.18;100.00;67318.16;5001900;28;19921;-86
2022/09/02 06:33:15;;;;;;;;;;;18.30;77.90;;;-147.18;100.00;67318.16;4977266;28;19930;-84
2022/09/02 06:35:45;;;;;;;;;;;18.30;78.40;;;-147.18;100.00;67318.16;4973458;28;19926;-84
2022/09/02 06:38:21;;;;;;;;;;;18.30;78.80;;;-147.18;100.00;67318.16;5004127;28;20306;-87
2022/09/02 06:40:52;;;;;;;;;;;18.40;77.70;;;-147.18;100.00;67318.16;4977689;28;20301;-85
2022/09/02 06:43:26;;;;;;;;;;;18.40;77.80;;;-147.18;100.00;67318.16;4980523;28;20462;-85
2022/09/02 06:46:05;;;;;;;;;;;18.40;77.60;;;-147.18;100.00;67318.16;4998436;28;19933;-86
2022/09/02 06:48:34;;;;;;;;;;;18.40;77.70;;;-147.18;100.00;67318.16;4989933;28;20315;-86
2022/09/02 06:51:02;;;;;;;;;;;18.40;78.80;;;-147.18;100.00;67318.16;4982046;28;20358;-86
2022/09/02 06:53:29;;;;;;;;;;;18.50;79.20;;;-147.18;100.00;67318.16;4981997;28;19960;-86
2022/09/02 06:55:57;;;;;;;;;;;18.50;78.80;;;-147.18;100.00;67318.16;4977246;28;19922;-86
2022/09/02 06:58:24;;;;;;;;;;;18.50;78.70;;;-147.18;100.00;67318.16;4990125;28;19930;-84
2022/09/02 07:00:52;;;;;;;;;;;18.60;78.70;;;-147.18;100.00;67318.16;4974561;28;19941;-84
2022/09/02 07:06:08;;;;;;;;;;;18.60;79.50;;;-147.18;100.00;67318.16;4975185;28;19926;-84
2022/09/02 07:08:37;;;;;;;;;;;18.60;78.90;;;-147.18;100.00;67318.16;4987814;28;19922;-84
2022/09/02 07:11:08;;;;;;;;;;;18.70;79.60;;;-147.18;100.00;67318.16;4983872;28;19972;-84
2022/09/02 07:13:35;;;;;;;;;;;18.70;80.30;;;-147.18;100.00;67318.16;4975177;28;20398;-84
2022/09/02 07:16:05;;;;;;;;;;;18.80;80.30;;;-147.18;100.00;67318.16;4982666;28;19972;-83
2022/09/02 07:18:32;;;;;;;;;;;18.80;79.40;;;-147.18;100.00;67318.16;4971605;28;19933;-84
2022/09/02 07:21:00;;;;;;;;;;;18.80;80.10;;;-147.18;100.00;67318.16;4988724;28;20000;-84
2022/09/02 07:23:27;;;;;;;;;;;18.80;79.20;;;-147.18;100.00;67318.16;4974639;28;20004;-84
2022/09/02 07:25:55;;;;;;;;;;;18.80;79.70;;;-147.18;100.00;67318.16;4985028;28;19928;-83
2022/09/02 07:28:25;;;;;;;;;;;18.90;79.90;;;-147.18;100.00;67318.16;4973664;28;19929;-83
2022/09/02 07:30:54;;;;;;;;;;;18.90;78.70;;;-147.18;100.00;67318.16;4994545;28;19926;-85
2022/09/02 07:33:22;;;;;;;;;;;19.00;78.40;;;-147.18;100.00;67318.16;4991514;28;20012;-85
2022/09/02 07:35:51;;;;;;;;;;;19.00;78.40;;;-147.18;100.00;67318.16;4979912;28;20024;-85
2022/09/02 07:38:20;;;;;;;;;;;19.00;78.60;;;-147.18;100.00;67318.16;4972347;28;20337;-85
2022/09/02 07:40:49;;;;;;;;;;;19.10;79.50;;;-147.18;100.00;67318.16;4987932;28;19926;-85
2022/09/02 07:43:17;;;;;;;;;;;19.10;78.10;;;-147.18;100.00;67318.16;4997464;28;20387;-85
2022/09/02 07:45:46;;;;;;;;;;;19.20;77.90;;;-147.18;100.00;67318.16;4994124;28;20363;-85
2022/09/02 07:48:14;;;;;;;;;;;19.30;78.70;;;-147.18;100.00;67318.16;4977717;28;19926;-84
2022/09/02 07:50:42;;;;;;;;;;;19.30;78.60;;;-147.18;100.00;67318.16;4993748;28;19922;-84
2022/09/02 07:53:12;;;;;;;;;;;19.40;78.20;;;-147.18;100.00;67318.16;4976715;28;19933;-85
2022/09/02 07:55:40;;;;;;;;;;;19.40;77.80;;;-147.18;100.00;67318.16;5004700;28;19921;-85
2022/09/02 07:58:08;;;;;;;;;;;19.40;77.20;;;-147.18;100.00;67318.16;5004136;28;19926;-84
2022/09/02 08:00:35;;;;;;;;;;;19.50;77.30;;;-147.18;100.00;67318.16;4999225;28;19922;-84
2022/09/02 08:03:10;;;;;;;;;;;19.60;76.80;;;-147.18;100.00;67318.16;4979666;28;19933;-85
2022/09/02 08:05:43;;;;;;;;;;;19.70;76.40;;;-147.18;100.00;67318.16;4985906;28;19926;-85
2022/09/02 08:08:11;;;;;;;;;;;19.70;76.30;;;-147.18;100.00;67318.16;4986070;28;20017;-85
2022/09/02 08:10:38;;;;;;;;;;;19.80;76.50;;;-147.18;100.00;67318.16;4987225;28;20012;-84
2022/09/02 08:13:05;;;;;;;;;;;19.80;76.20;;;-147.18;100.00;67318.16;4985197;28;19922;-85
2022/09/02 08:15:34;;;;;;;;;;;19.90;76.70;;;-147.18;100.00;67318.16;4981239;28;20408;-85
2022/09/02 08:18:02;;;;;;;;;;;19.90;77.20;;;-147.18;100.00;67318.16;4992842;28;19932;-85
2022/09/02 08:20:31;;;;;;;;;;;20.00;77.30;;;-147.18;100.00;67318.16;4983515;28;19964;-85
2022/09/02 08:22:58;;;;;;;;;;;20.00;76.70;;;-147.18;100.00;67318.16;4977762;28;19985;-85
2022/09/02 08:25:25;;;;;;;;;;;20.10;76.60;;;-147.18;100.00;67318.16;4978503;28;20021;-85
2022/09/02 08:27:53;;;;;;;;;;;20.10;76.20;;;-147.18;100.00;67318.16;4976362;28;19922;-85
2022/09/02 08:30:21;;;;;;;;;;;20.20;76.40;;;-147.18;100.00;67318.16;4980013;28;20012;-89
2022/09/02 08:32:48;;;;;;;;;;;20.20;76.80;;;-147.18;100.00;67318.16;4980665;28;20449;-86
2022/09/02 08:35:15;;;;;;;;;;;20.30;78.00;;;-147.18;100.00;67318.16;4988290;28;20044;-85
2022/09/02 08:37:44;;;;;;;;;;;20.50;77.00;;;-147.18;100.00;67318.16;4992804;28;19975;-85
2022/09/02 08:40:15;;;;;;;;;;;20.50;77.40;;;-147.18;100.00;67318.16;4982875;28;20025;-85
2022/09/02 08:42:45;;;;;;;;;;;20.60;76.30;;;-147.18;100.00;67318.16;4982434;28;20454;-85
2022/09/02 08:45:16;;;;;;;;;;;20.60;76.30;;;-147.18;100.00;67318.16;4976814;28;19926;-86
2022/09/02 08:47:46;;;;;;;;;;;20.70;76.60;;;-147.18;100.00;67318.16;4982882;28;19926;-86
2022/09/02 08:50:15;;;;;;;;;;;20.70;76.00;;;-147.18;100.00;67318.16;4978762;28;20389;-85
2022/09/02 08:52:48;;;;;;;;;;;20.70;75.50;;;-147.18;100.00;67318.16;4980587;28;19921;-85
2022/09/02 08:55:19;;;;;;;;;;;20.70;75.90;;;-147.18;100.00;67318.16;4993869;28;19929;-86
2022/09/02 08:57:48;;;;;;;;;;;20.80;75.70;;;-147.18;100.00;67318.16;4986656;28;19929;-86
2022/09/02 09:00:16;;;;;;;;;;;20.80;76.00;;;-147.18;100.00;67318.16;4983239;28;20045;-85
2022/09/02 09:02:55;;;;;;;;;;;20.80;75.90;;;-147.18;100.00;67318.16;4980563;28;19921;-86
2022/09/02 09:05:43;;;;;;;;;;;20.90;76.10;;;-147.18;100.00;67318.16;4996194;28;19930;-85
2022/09/02 09:08:19;;;;;;;;;;;21.00;76.10;;;-147.18;100.00;67318.16;4974934;28;19977;-85
2022/09/02 09:10:55;;;;;;;;;;;21.10;75.80;;;-147.18;100.00;67318.16;4981911;28;20390;-85
2022/09/02 09:13:50;;;;;;;;;;;21.00;74.50;;;-147.18;100.00;67318.16;4975919;28;19926;-85
2022/09/02 09:16:26;;;;;;;;;;;21.10;75.10;;;-147.18;100.00;67318.16;4966924;28;19978;-85
2022/09/02 09:18:59;;;;;;;;;;;21.20;76.50;;;-147.18;100.00;67318.16;4982804;28;19925;-85
2022/09/02 09:21:28;;;;;;;;;;;21.30;75.50;;;-147.18;100.00;67318.16;4986274;28;19949;-85
2022/09/02 09:23:58;;;;;;;;;;;21.40;75.50;;;-147.18;100.00;67318.16;4978496;28;20351;-85
2022/09/02 09:26:29;;;;;;;;;;;21.40;73.90;;;-147.18;100.00;67318.16;4999806;23;19976;-88
2022/09/02 09:28:58;;;;;;;;;;;21.40;73.00;;;-147.18;100.00;67318.16;4990593;28;19933;-89
2022/09/02 09:31:29;;;;;;;;;;;21.40;73.20;;;-147.18;100.00;67318.16;4980980;28;19926;-89
2022/09/02 09:33:58;;;;;;;;;;;21.40;72.80;;;-147.18;100.00;67318.16;4985968;28;19922;-89
2022/09/02 09:36:44;;;;;;;;;;;21.50;74.50;;;-147.18;100.00;67318.16;4988699;28;20362;-89
2022/09/02 09:39:24;;;;;;;;;;;21.50;72.40;;;-147.18;100.00;67318.16;4965849;28;19992;-89
2022/09/02 09:41:53;;;;;;;;;;;21.50;72.50;;;-147.18;100.00;67318.16;4975459;28;20268;-89
2022/09/02 09:44:43;;;;;;;;;;;21.60;73.40;;;-147.18;100.00;67318.16;4968060;28;19925;-89
2022/09/02 09:47:18;;;;;;;;;;;21.60;70.90;;;-147.18;100.00;67318.16;4971865;28;20709;-90
2022/09/02 09:49:46;;;;;;;;;;;21.70;70.80;;;-147.18;100.00;67318.16;4979824;28;19957;-89
2022/09/02 09:52:23;;;;;;;;;;;21.70;70.90;;;-147.18;100.00;67318.16;4977980;28;19926;-89
2022/09/02 09:55:12;;;;;;;;;;;21.80;70.80;;;-147.18;100.00;67318.16;4957105;28;19937;-90
2022/09/02 09:57:40;;;;;;;;;;;21.80;71.20;;;-147.18;100.00;67318.16;4969710;28;19926;-90
2022/09/02 10:00:13;;;;;;;;;;;21.90;71.20;;;-147.18;100.00;67318.16;4981668;28;19921;-87
2022/09/02 10:02:47;;;;;;;;;;;21.90;69.90;;;-147.18;100.00;67318.16;4961395;28;20026;-86
2022/09/02 10:05:27;;;;;;;;;;;22.00;70.00;;;-147.18;100.00;67318.16;4959088;28;20022;-86
2022/09/02 10:07:55;;;;;;;;;;;22.00;69.50;;;-147.18;100.00;67318.16;4977994;28;19957;-87
2022/09/02 10:10:25;;;;;;;;;;;22.00;69.60;;;-147.18;100.00;67318.16;4980955;28;19972;-87
2022/09/02 10:12:55;;;;;;;;;;;22.00;68.90;;;-147.18;100.00;67318.16;4967145;28;20014;-87
2022/09/02 10:15:29;;;;;;;;;;;22.00;68.60;;;-147.18;100.00;67318.16;4956264;28;19954;-86
2022/09/02 10:18:04;;;;;;;;;;;22.10;68.00;;;-147.18;100.00;67318.16;4972481;28;19972;-88
2022/09/02 10:20:40;;;;;;;;;;;22.00;67.80;;;-147.18;100.00;67318.16;4970584;28;20404;-91
2022/09/02 10:23:15;;;;;;;;;;;22.10;67.60;;;-147.18;100.00;67318.16;4964251;28;19922;-90
2022/09/02 10:25:55;;;;;;;;;;;22.10;67.60;;;-147.18;100.00;67318.16;4969436;28;19961;-91
2022/09/02 10:28:32;;;;;;;;;;;22.10;68.00;;;-147.18;100.00;67318.16;4972091;28;19976;-91
2022/09/02 10:31:06;;;;;;;;;;;22.10;68.00;;;-147.18;100.00;67318.16;4964148;28;19950;-92
2022/09/02 10:33:42;;;;;;;;;;;22.10;67.10;;;-147.18;100.00;67318.16;4961365;28;19961;-90
2022/09/02 10:36:15;;;;;;;;;;;22.10;67.20;;;-147.18;100.00;67318.16;4982943;28;19922;-91
2022/09/02 10:38:43;;;;;;;;;;;22.10;66.90;;;-147.18;100.00;67318.16;4978041;28;20020;-92
2022/09/02 10:41:44;;;;;;;;;;;22.10;66.70;;;-147.18;100.00;67318.16;4974177;28;20484;-92
2022/09/02 10:44:22;;;;;;;;;;;22.10;66.20;;;-147.18;100.00;67318.16;4961872;28;20016;-90
2022/09/02 10:46:58;;;;;;;;;;;22.10;65.30;;;-147.18;100.00;67318.16;4956086;28;20016;-90
2022/09/02 10:49:40;;;;;;;;;;;22.20;67.10;;;-147.18;100.00;67318.16;4961406;28;19997;-90
2022/09/02 10:52:13;;;;;;;;;;;22.20;65.90;;;-147.18;100.00;67318.16;4965243;28;19938;-84
2022/09/02 10:54:48;;;;;;;;;;;22.20;66.30;;;-147.18;100.00;67318.16;4965432;28;19925;-84
2022/09/02 10:57:19;;;;;;;;;;;22.20;66.10;;;-147.18;100.00;67318.16;4960527;28;19930;-84
2022/09/02 10:59:51;;;;;;;;;;;22.20;62.60;;;-147.18;100.00;67318.16;4955812;28;19962;-83
2022/09/02 11:02:21;;;;;;;;;;;22.20;60.60;;;-147.18;100.00;67318.16;4980510;28;19977;-84
2022/09/02 11:04:51;;;;;;;;;;;22.20;61.00;;;-147.18;100.00;67318.16;4973773;28;19922;-84
2022/09/02 11:07:23;;;;;;;;;;;22.30;60.50;;;-147.18;100.00;67318.16;4953607;28;19922;-81
2022/09/02 11:09:54;;;;;;;;;;;22.30;60.00;;;-147.18;100.00;67318.16;4967367;28;19926;-81
2022/09/02 11:12:29;;;;;;;;;;;22.40;60.00;;;-147.18;100.00;67318.16;4961102;28;20502;-81
2022/09/02 11:15:04;;;;;;;;;;;22.40;59.70;;;-147.18;100.00;67318.16;4955499;28;19974;-81